sensor_id;sensor_type;location;lat;lon;timestamp;pressure;altitude;pressure_sealevel;temperature;humidity
79612;BME280;69094;48.154;11.536;2023-04-24T00:01:46;94621.22;;;9.38;84.84
79612;BME280;69094;48.154;11.536;2023-04-24T00:04:11;94624.16;;;9.33;84.68
79612;BME280;69094;48.154;11.536;2023-04-24T00:06:41;94611.28;;;9.30;83.87
79612;BME280;69094;48.154;11.536;2023-04-24T00:09:08;94608.88;;;9.28;83.77
79612;BME280;69094;48.154;11.536;2023-04-24T00:11:35;94607.41;;;9.31;84.69
79612;BME280;69094;48.154;11.536;2023-04-24T00:14:01;94608.88;;;9.28;84.25
79612;BME280;69094;48.154;11.536;2023-04-24T00:16:26;94604.47;;;9.24;84.00
79612;BME280;69094;48.154;11.536;2023-04-24T00:18:52;94601.97;;;9.19;84.69
79612;BME280;69094;48.154;11.536;2023-04-24T00:21:21;94610.72;;;9.24;84.97
79612;BME280;69094;48.154;11.536;2023-04-24T00:23:47;94608.44;;;9.26;83.93
79612;BME280;69094;48.154;11.536;2023-04-24T00:26:12;94608.56;;;9.30;83.66
79612;BME280;69094;48.154;11.536;2023-04-24T00:28:38;94608.00;;;9.24;83.92
79612;BME280;69094;48.154;11.536;2023-04-24T00:31:03;94601.19;;;9.18;83.39
79612;BME280;69094;48.154;11.536;2023-04-24T00:33:29;94600.75;;;9.16;83.86
79612;BME280;69094;48.154;11.536;2023-04-24T00:35:54;94604.47;;;9.12;84.69
79612;BME280;69094;48.154;11.536;2023-04-24T00:38:20;94603.03;;;9.14;83.55
79612;BME280;69094;48.154;11.536;2023-04-24T00:40:47;94612.59;;;9.12;83.68
79612;BME280;69094;48.154;11.536;2023-04-24T00:43:13;94611.38;;;9.09;82.75
79612;BME280;69094;48.154;11.536;2023-04-24T00:45:38;94607.75;;;9.05;83.02
79612;BME280;69094;48.154;11.536;2023-04-24T00:48:04;94605.16;;;9.09;82.58
79612;BME280;69094;48.154;11.536;2023-04-24T00:50:30;94602.56;;;9.12;82.36
79612;BME280;69094;48.154;11.536;2023-04-24T00:52:56;94602.44;;;9.09;81.69
79612;BME280;69094;48.154;11.536;2023-04-24T00:55:22;94607.06;;;9.08;81.41
79612;BME280;69094;48.154;11.536;2023-04-24T00:57:48;94605.06;;;9.05;81.68
79612;BME280;69094;48.154;11.536;2023-04-24T01:00:14;94605.50;;;9.07;82.50
79612;BME280;69094;48.154;11.536;2023-04-24T01:02:43;94601.31;;;9.10;82.32
79612;BME280;69094;48.154;11.536;2023-04-24T01:05:11;94598.47;;;9.06;81.75
79612;BME280;69094;48.154;11.536;2023-04-24T01:07:38;94606.97;;;9.04;80.89
79612;BME280;69094;48.154;11.536;2023-04-24T01:10:03;94601.97;;;9.06;81.00
79612;BME280;69094;48.154;11.536;2023-04-24T01:12:29;94596.13;;;9.04;80.92
79612;BME280;69094;48.154;11.536;2023-04-24T01:14:56;94592.94;;;9.02;81.09
79612;BME280;69094;48.154;11.536;2023-04-24T01:17:22;94599.94;;;9.03;80.53
79612;BME280;69094;48.154;11.536;2023-04-24T01:19:47;94599.16;;;9.03;80.42
79612;BME280;69094;48.154;11.536;2023-04-24T01:22:15;94604.59;;;9.03;80.29
79612;BME280;69094;48.154;11.536;2023-04-24T01:24:42;94595.53;;;8.99;79.68
79612;BME280;69094;48.154;11.536;2023-04-24T01:27:08;94583.44;;;8.96;79.63
79612;BME280;69094;48.154;11.536;2023-04-24T01:29:35;94592.81;;;8.99;79.86
79612;BME280;69094;48.154;11.536;2023-04-24T01:32:01;94586.28;;;9.00;79.05
79612;BME280;69094;48.154;11.536;2023-04-24T01:34:27;94592.03;;;8.98;78.76
79612;BME280;69094;48.154;11.536;2023-04-24T01:36:52;94579.94;;;8.96;79.52
79612;BME280;69094;48.154;11.536;2023-04-24T01:39:18;94589.53;;;8.93;79.67
79612;BME280;69094;48.154;11.536;2023-04-24T01:41:46;94582.88;;;8.91;78.33
79612;BME280;69094;48.154;11.536;2023-04-24T01:44:11;94585.59;;;8.91;79.52
79612;BME280;69094;48.154;11.536;2023-04-24T01:46:37;94588.28;;;8.91;79.30
79612;BME280;69094;48.154;11.536;2023-04-24T01:49:02;94585.25;;;8.92;78.96
79612;BME280;69094;48.154;11.536;2023-04-24T01:51:28;94583.88;;;8.86;79.28
79612;BME280;69094;48.154;11.536;2023-04-24T01:53:53;94589.53;;;8.93;79.12
79612;BME280;69094;48.154;11.536;2023-04-24T01:56:22;94590.78;;;8.83;79.18
79612;BME280;69094;48.154;11.536;2023-04-24T01:58:49;94586.03;;;8.80;79.36
79612;BME280;69094;48.154;11.536;2023-04-24T02:01:23;94585.69;;;8.82;78.72
79612;BME280;69094;48.154;11.536;2023-04-24T02:03:49;94594.03;;;8.77;78.68
79612;BME280;69094;48.154;11.536;2023-04-24T02:06:14;94588.59;;;8.77;78.71
79612;BME280;69094;48.154;11.536;2023-04-24T02:08:39;94593.03;;;8.81;78.62
79612;BME280;69094;48.154;11.536;2023-04-24T02:11:05;94593.59;;;8.75;79.05
79612;BME280;69094;48.154;11.536;2023-04-24T02:13:31;94595.84;;;8.73;79.13
79612;BME280;69094;48.154;11.536;2023-04-24T02:15:58;94582.97;;;8.70;79.38
79612;BME280;69094;48.154;11.536;2023-04-24T02:18:23;94589.63;;;8.72;79.13
79612;BME280;69094;48.154;11.536;2023-04-24T02:20:49;94582.28;;;8.73;78.56
79612;BME280;69094;48.154;11.536;2023-04-24T02:23:14;94588.81;;;8.72;78.42
79612;BME280;69094;48.154;11.536;2023-04-24T02:25:40;94586.47;;;8.70;78.77
79612;BME280;69094;48.154;11.536;2023-04-24T02:28:05;94584.09;;;8.69;79.25
79612;BME280;69094;48.154;11.536;2023-04-24T02:30:31;94581.72;;;8.67;78.62
79612;BME280;69094;48.154;11.536;2023-04-24T02:32:56;94581.03;;;8.70;78.68
79612;BME280;69094;48.154;11.536;2023-04-24T02:35:22;94586.00;;;8.68;78.65
79612;BME280;69094;48.154;11.536;2023-04-24T02:37:47;94587.34;;;8.74;78.13
79612;BME280;69094;48.154;11.536;2023-04-24T02:40:13;94588.41;;;8.82;78.08
79612;BME280;69094;48.154;11.536;2023-04-24T02:42:38;94585.69;;;8.70;78.60
79612;BME280;69094;48.154;11.536;2023-04-24T02:45:04;94582.50;;;8.68;79.35
79612;BME280;69094;48.154;11.536;2023-04-24T02:47:30;94589.03;;;8.67;79.76
79612;BME280;69094;48.154;11.536;2023-04-24T02:49:55;94580.91;;;8.67;79.95
79612;BME280;69094;48.154;11.536;2023-04-24T02:52:20;94582.84;;;8.66;79.76
79612;BME280;69094;48.154;11.536;2023-04-24T02:54:46;94590.28;;;8.69;79.21
79612;BME280;69094;48.154;11.536;2023-04-24T02:57:11;94587.47;;;8.66;80.49
79612;BME280;69094;48.154;11.536;2023-04-24T02:59:37;94583.06;;;8.61;80.66
79612;BME280;69094;48.154;11.536;2023-04-24T03:02:02;94587.78;;;8.52;80.02
79612;BME280;69094;48.154;11.536;2023-04-24T03:04:27;94586.97;;;8.51;80.40
79612;BME280;69094;48.154;11.536;2023-04-24T03:06:53;94581.69;;;8.55;81.25
79612;BME280;69094;48.154;11.536;2023-04-24T03:09:20;94589.03;;;8.54;80.67
79612;BME280;69094;48.154;11.536;2023-04-24T03:11:45;94587.44;;;8.53;81.02
79612;BME280;69094;48.154;11.536;2023-04-24T03:14:11;94577.28;;;8.50;81.35
79612;BME280;69094;48.154;11.536;2023-04-24T03:16:36;94582.91;;;8.45;82.09
79612;BME280;69094;48.154;11.536;2023-04-24T03:19:02;94588.81;;;8.47;82.43
79612;BME280;69094;48.154;11.536;2023-04-24T03:21:27;94586.13;;;8.38;82.16
79612;BME280;69094;48.154;11.536;2023-04-24T03:23:53;94592.69;;;8.37;82.96
79612;BME280;69094;48.154;11.536;2023-04-24T03:26:18;94592.56;;;8.34;83.01
79612;BME280;69094;48.154;11.536;2023-04-24T03:28:43;94591.44;;;8.35;83.14
79612;BME280;69094;48.154;11.536;2023-04-24T03:31:08;94589.84;;;8.34;83.57
79612;BME280;69094;48.154;11.536;2023-04-24T03:33:34;94586.81;;;8.35;83.35
79612;BME280;69094;48.154;11.536;2023-04-24T03:36:01;94587.81;;;8.31;83.59
79612;BME280;69094;48.154;11.536;2023-04-24T03:38:26;94598.41;;;8.24;83.43
79612;BME280;69094;48.154;11.536;2023-04-24T03:40:51;94594.91;;;8.23;84.01
79612;BME280;69094;48.154;11.536;2023-04-24T03:43:17;94581.75;;;8.13;87.20
79612;BME280;69094;48.154;11.536;2023-04-24T03:45:42;94584.94;;;8.15;85.40
79612;BME280;69094;48.154;11.536;2023-04-24T03:48:07;94594.75;;;8.19;88.89
79612;BME280;69094;48.154;11.536;2023-04-24T03:50:33;94588.09;;;8.17;86.29
79612;BME280;69094;48.154;11.536;2023-04-24T03:52:58;94582.13;;;8.24;85.24
79612;BME280;69094;48.154;11.536;2023-04-24T03:55:23;94585.16;;;8.22;85.34
79612;BME280;69094;48.154;11.536;2023-04-24T03:57:48;94573.97;;;8.11;85.14
79612;BME280;69094;48.154;11.536;2023-04-24T04:00:14;94589.09;;;8.12;85.47
79612;BME280;69094;48.154;11.536;2023-04-24T04:02:40;94583.34;;;8.14;85.77
79612;BME280;69094;48.154;11.536;2023-04-24T04:05:06;94578.91;;;8.09;85.32
79612;BME280;69094;48.154;11.536;2023-04-24T04:07:33;94577.84;;;8.23;86.58
79612;BME280;69094;48.154;11.536;2023-04-24T04:09:58;94579.88;;;8.26;85.66
79612;BME280;69094;48.154;11.536;2023-04-24T04:12:23;94571.75;;;8.26;85.28
79612;BME280;69094;48.154;11.536;2023-04-24T04:14:49;94574.00;;;8.24;84.94
79612;BME280;69094;48.154;11.536;2023-04-24T04:17:14;94571.38;;;8.15;84.79
79612;BME280;69094;48.154;11.536;2023-04-24T04:19:40;94577.91;;;8.14;85.20
79612;BME280;69094;48.154;11.536;2023-04-24T04:22:05;94568.47;;;8.20;84.96
79612;BME280;69094;48.154;11.536;2023-04-24T04:24:33;94573.06;;;8.19;84.07
79612;BME280;69094;48.154;11.536;2023-04-24T04:26:58;94572.97;;;8.16;84.65
79612;BME280;69094;48.154;11.536;2023-04-24T04:29:24;94572.63;;;8.17;84.13
79612;BME280;69094;48.154;11.536;2023-04-24T04:31:49;94577.59;;;8.15;84.42
79612;BME280;69094;48.154;11.536;2023-04-24T04:34:15;94588.44;;;8.15;84.30
79612;BME280;69094;48.154;11.536;2023-04-24T04:36:41;94586.84;;;8.14;83.93
79612;BME280;69094;48.154;11.536;2023-04-24T04:39:06;94590.78;;;8.17;84.53
79612;BME280;69094;48.154;11.536;2023-04-24T04:41:32;94592.72;;;8.16;83.70
79612;BME280;69094;48.154;11.536;2023-04-24T04:44:00;94586.84;;;8.14;83.79
79612;BME280;69094;48.154;11.536;2023-04-24T04:46:26;94596.88;;;8.14;83.99
79612;BME280;69094;48.154;11.536;2023-04-24T04:48:53;94602.88;;;8.19;83.47
79612;BME280;69094;48.154;11.536;2023-04-24T04:51:18;94602.03;;;8.28;83.71
79612;BME280;69094;48.154;11.536;2023-04-24T04:53:44;94597.81;;;8.18;83.67
79612;BME280;69094;48.154;11.536;2023-04-24T04:56:09;94602.25;;;8.23;84.05
79612;BME280;69094;48.154;11.536;2023-04-24T04:58:35;94602.88;;;8.19;83.41
79612;BME280;69094;48.154;11.536;2023-04-24T05:01:00;94606.06;;;8.22;83.13
79612;BME280;69094;48.154;11.536;2023-04-24T05:03:26;94603.03;;;8.23;82.85
79612;BME280;69094;48.154;11.536;2023-04-24T05:05:51;94617.38;;;8.24;82.19
79612;BME280;69094;48.154;11.536;2023-04-24T05:08:16;94610.63;;;8.30;82.37
79612;BME280;69094;48.154;11.536;2023-04-24T05:10:41;94612.00;;;8.36;81.35
79612;BME280;69094;48.154;11.536;2023-04-24T05:13:07;94618.81;;;8.42;81.70
79612;BME280;69094;48.154;11.536;2023-04-24T05:15:32;94610.66;;;8.42;81.34
79612;BME280;69094;48.154;11.536;2023-04-24T05:17:58;94619.41;;;8.48;81.39
79612;BME280;69094;48.154;11.536;2023-04-24T05:20:23;94619.41;;;8.48;80.27
79612;BME280;69094;48.154;11.536;2023-04-24T05:22:48;94623.84;;;8.52;80.29
79612;BME280;69094;48.154;11.536;2023-04-24T05:25:14;94624.63;;;8.53;80.10
79612;BME280;69094;48.154;11.536;2023-04-24T05:27:40;94628.38;;;8.60;79.63
79612;BME280;69094;48.154;11.536;2023-04-24T05:30:06;94634.31;;;8.54;79.59
79612;BME280;69094;48.154;11.536;2023-04-24T05:32:31;94628.78;;;8.50;79.30
79612;BME280;69094;48.154;11.536;2023-04-24T05:34:57;94632.19;;;8.59;78.70
79612;BME280;69094;48.154;11.536;2023-04-24T05:37:22;94628.47;;;8.64;79.09
79612;BME280;69094;48.154;11.536;2023-04-24T05:39:47;94632.66;;;8.61;79.15
79612;BME280;69094;48.154;11.536;2023-04-24T05:42:13;94625.66;;;8.60;78.52
79612;BME280;69094;48.154;11.536;2023-04-24T05:44:38;94628.22;;;8.57;78.85
79612;BME280;69094;48.154;11.536;2023-04-24T05:47:03;94619.78;;;8.58;78.88
79612;BME280;69094;48.154;11.536;2023-04-24T05:49:29;94627.38;;;8.65;78.96
79612;BME280;69094;48.154;11.536;2023-04-24T05:51:54;94630.88;;;8.66;78.83
79612;BME280;69094;48.154;11.536;2023-04-24T05:54:20;94637.66;;;8.72;78.75
79612;BME280;69094;48.154;11.536;2023-04-24T05:56:45;94629.19;;;8.73;78.41
79612;BME280;69094;48.154;11.536;2023-04-24T05:59:11;94633.59;;;8.78;78.01
79612;BME280;69094;48.154;11.536;2023-04-24T06:01:36;94634.63;;;8.86;77.66
79612;BME280;69094;48.154;11.536;2023-04-24T06:04:03;94646.41;;;8.90;77.60
79612;BME280;69094;48.154;11.536;2023-04-24T06:06:28;94637.06;;;8.99;77.56
79612;BME280;69094;48.154;11.536;2023-04-24T06:08:54;94632.88;;;9.02;77.32
79612;BME280;69094;48.154;11.536;2023-04-24T06:11:19;94639.19;;;9.06;76.27
79612;BME280;69094;48.154;11.536;2023-04-24T06:13:45;94644.16;;;9.16;76.24
79612;BME280;69094;48.154;11.536;2023-04-24T06:16:11;94634.78;;;9.26;75.81
79612;BME280;69094;48.154;11.536;2023-04-24T06:18:36;94638.09;;;9.32;75.50
79612;BME280;69094;48.154;11.536;2023-04-24T06:21:02;94644.78;;;9.34;75.06
79612;BME280;69094;48.154;11.536;2023-04-24T06:23:27;94638.19;;;9.35;75.16
79612;BME280;69094;48.154;11.536;2023-04-24T06:25:53;94645.41;;;9.31;75.15
79612;BME280;69094;48.154;11.536;2023-04-24T06:28:18;94644.31;;;9.32;75.21
79612;BME280;69094;48.154;11.536;2023-04-24T06:30:43;94647.47;;;9.34;75.05
79612;BME280;69094;48.154;11.536;2023-04-24T06:33:09;94650.19;;;9.34;74.55
79612;BME280;69094;48.154;11.536;2023-04-24T06:35:36;94652.31;;;9.41;73.97
79612;BME280;69094;48.154;11.536;2023-04-24T06:38:01;94642.38;;;9.45;74.21
79612;BME280;69094;48.154;11.536;2023-04-24T06:40:27;94642.47;;;9.61;73.44
79612;BME280;69094;48.154;11.536;2023-04-24T06:42:52;94654.03;;;9.70;73.44
79612;BME280;69094;48.154;11.536;2023-04-24T06:45:18;94654.81;;;9.70;72.30
79612;BME280;69094;48.154;11.536;2023-04-24T06:47:43;94658.28;;;9.83;72.12
79612;BME280;69094;48.154;11.536;2023-04-24T06:50:09;94656.50;;;9.75;72.69
79612;BME280;69094;48.154;11.536;2023-04-24T06:52:34;94653.78;;;9.87;72.44
79612;BME280;69094;48.154;11.536;2023-04-24T06:55:03;94656.56;;;10.03;71.94
79612;BME280;69094;48.154;11.536;2023-04-24T06:57:29;94660.34;;;9.99;71.35
79612;BME280;69094;48.154;11.536;2023-04-24T06:59:55;94659.38;;;10.19;70.50
79612;BME280;69094;48.154;11.536;2023-04-24T07:02:20;94651.03;;;10.40;69.57
79612;BME280;69094;48.154;11.536;2023-04-24T07:04:46;94654.44;;;10.65;69.06
79612;BME280;69094;48.154;11.536;2023-04-24T07:07:13;94657.13;;;10.77;68.51
79612;BME280;69094;48.154;11.536;2023-04-24T07:09:40;94649.66;;;10.74;67.26
79612;BME280;69094;48.154;11.536;2023-04-24T07:12:08;94654.69;;;10.60;68.43
79612;BME280;69094;48.154;11.536;2023-04-24T07:14:33;94659.69;;;10.58;68.56
79612;BME280;69094;48.154;11.536;2023-04-24T07:16:59;94653.63;;;10.49;67.77
79612;BME280;69094;48.154;11.536;2023-04-24T07:19:24;94664.41;;;10.45;68.43
79612;BME280;69094;48.154;11.536;2023-04-24T07:21:49;94662.13;;;10.47;68.84
79612;BME280;69094;48.154;11.536;2023-04-24T07:24:15;94669.31;;;10.40;68.15
79612;BME280;69094;48.154;11.536;2023-04-24T07:26:40;94671.03;;;10.60;67.95
79612;BME280;69094;48.154;11.536;2023-04-24T07:29:07;94671.63;;;10.53;67.00
79612;BME280;69094;48.154;11.536;2023-04-24T07:31:32;94678.94;;;10.65;66.83
79612;BME280;69094;48.154;11.536;2023-04-24T07:33:57;94684.06;;;10.83;66.88
79612;BME280;69094;48.154;11.536;2023-04-24T07:36:24;94683.22;;;10.78;66.79
79612;BME280;69094;48.154;11.536;2023-04-24T07:38:49;94682.34;;;10.62;67.26
79612;BME280;69094;48.154;11.536;2023-04-24T07:41:15;94686.41;;;10.40;67.32
79612;BME280;69094;48.154;11.536;2023-04-24T07:43:41;94679.72;;;10.38;67.14
79612;BME280;69094;48.154;11.536;2023-04-24T07:46:07;94684.63;;;10.32;67.64
79612;BME280;69094;48.154;11.536;2023-04-24T07:48:33;94686.66;;;10.23;68.29
79612;BME280;69094;48.154;11.536;2023-04-24T07:50:58;94692.22;;;10.14;68.05
79612;BME280;69094;48.154;11.536;2023-04-24T07:53:24;94689.59;;;10.18;67.92
79612;BME280;69094;48.154;11.536;2023-04-24T07:55:49;94692.44;;;10.21;68.08
79612;BME280;69094;48.154;11.536;2023-04-24T07:58:15;94697.19;;;10.24;67.86
79612;BME280;69094;48.154;11.536;2023-04-24T08:00:40;94698.38;;;10.51;67.01
79612;BME280;69094;48.154;11.536;2023-04-24T08:03:06;94696.94;;;10.70;66.42
79612;BME280;69094;48.154;11.536;2023-04-24T08:05:31;94699.53;;;10.78;65.48
79612;BME280;69094;48.154;11.536;2023-04-24T08:07:56;94697.19;;;10.93;65.86
79612;BME280;69094;48.154;11.536;2023-04-24T08:10:23;94701.75;;;10.89;65.52
79612;BME280;69094;48.154;11.536;2023-04-24T08:12:48;94694.81;;;10.91;65.31
79612;BME280;69094;48.154;11.536;2023-04-24T08:15:14;94704.63;;;10.52;66.38
79612;BME280;69094;48.154;11.536;2023-04-24T08:17:40;94705.88;;;10.42;67.34
79612;BME280;69094;48.154;11.536;2023-04-24T08:20:06;94711.91;;;10.35;67.38
79612;BME280;69094;48.154;11.536;2023-04-24T08:22:35;94717.91;;;10.41;68.09
79612;BME280;69094;48.154;11.536;2023-04-24T08:25:00;94711.34;;;10.42;67.46
79612;BME280;69094;48.154;11.536;2023-04-24T08:27:27;94720.97;;;10.27;68.59
79612;BME280;69094;48.154;11.536;2023-04-24T08:29:55;94711.81;;;10.32;69.83
79612;BME280;69094;48.154;11.536;2023-04-24T08:32:20;94725.84;;;10.22;72.54
79612;BME280;69094;48.154;11.536;2023-04-24T08:34:45;94736.19;;;10.04;74.22
79612;BME280;69094;48.154;11.536;2023-04-24T08:37:11;94741.19;;;9.77;76.36
79612;BME280;69094;48.154;11.536;2023-04-24T08:39:37;94741.63;;;9.55;77.87
79612;BME280;69094;48.154;11.536;2023-04-24T08:42:02;94749.00;;;9.54;76.62
79612;BME280;69094;48.154;11.536;2023-04-24T08:44:33;94737.09;;;9.71;73.66
79612;BME280;69094;48.154;11.536;2023-04-24T08:46:59;94751.03;;;9.94;70.35
79612;BME280;69094;48.154;11.536;2023-04-24T08:49:26;94746.84;;;10.33;67.77
79612;BME280;69094;48.154;11.536;2023-04-24T08:51:52;94754.16;;;10.45;67.92
79612;BME280;69094;48.154;11.536;2023-04-24T08:54:18;94752.47;;;10.41;67.60
79612;BME280;69094;48.154;11.536;2023-04-24T08:56:44;94752.03;;;10.26;67.22
79612;BME280;69094;48.154;11.536;2023-04-24T08:59:10;94764.41;;;10.11;64.07
79612;BME280;69094;48.154;11.536;2023-04-24T09:01:37;94764.63;;;9.94;64.40
79612;BME280;69094;48.154;11.536;2023-04-24T09:04:03;94774.47;;;9.86;65.09
79612;BME280;69094;48.154;11.536;2023-04-24T09:06:29;94766.53;;;9.93;64.24
79612;BME280;69094;48.154;11.536;2023-04-24T09:08:56;94772.31;;;9.92;62.65
79612;BME280;69094;48.154;11.536;2023-04-24T09:11:22;94767.22;;;9.78;63.66
79612;BME280;69094;48.154;11.536;2023-04-24T09:13:50;94764.41;;;10.11;62.72
79612;BME280;69094;48.154;11.536;2023-04-24T09:16:16;94763.81;;;10.30;63.59
79612;BME280;69094;48.154;11.536;2023-04-24T09:18:42;94769.59;;;10.41;62.67
79612;BME280;69094;48.154;11.536;2023-04-24T09:21:08;94763.25;;;10.37;62.35
79612;BME280;69094;48.154;11.536;2023-04-24T09:23:35;94752.91;;;10.43;62.01
79612;BME280;69094;48.154;11.536;2023-04-24T09:26:03;94768.63;;;10.62;62.43
79612;BME280;69094;48.154;11.536;2023-04-24T09:28:38;94770.56;;;10.61;61.09
79612;BME280;69094;48.154;11.536;2023-04-24T09:31:08;94777.78;;;10.69;60.56
79612;BME280;69094;48.154;11.536;2023-04-24T09:33:34;94779.13;;;10.75;60.47
79612;BME280;69094;48.154;11.536;2023-04-24T09:35:59;94771.97;;;10.83;60.13
79612;BME280;69094;48.154;11.536;2023-04-24T09:38:38;94768.84;;;10.97;59.15
79612;BME280;69094;48.154;11.536;2023-04-24T09:41:08;94768.41;;;10.95;58.37
79612;BME280;69094;48.154;11.536;2023-04-24T09:43:34;94761.94;;;11.15;57.98
79612;BME280;69094;48.154;11.536;2023-04-24T09:46:06;94765.38;;;11.40;56.77
79612;BME280;69094;48.154;11.536;2023-04-24T09:48:33;94767.63;;;11.38;57.36
79612;BME280;69094;48.154;11.536;2023-04-24T09:51:01;94760.56;;;11.66;56.38
79612;BME280;69094;48.154;11.536;2023-04-24T09:53:28;94772.41;;;11.73;56.21
79612;BME280;69094;48.154;11.536;2023-04-24T09:55:54;94764.44;;;11.96;55.79
79612;BME280;69094;48.154;11.536;2023-04-24T09:58:26;94768.72;;;12.13;54.79
79612;BME280;69094;48.154;11.536;2023-04-24T10:01:00;94763.97;;;12.26;55.28
79612;BME280;69094;48.154;11.536;2023-04-24T10:03:26;94760.78;;;12.24;53.65
79612;BME280;69094;48.154;11.536;2023-04-24T10:06:11;94760.13;;;12.46;54.27
79612;BME280;69094;48.154;11.536;2023-04-24T10:08:37;94765.19;;;12.83;53.13
79612;BME280;69094;48.154;11.536;2023-04-24T10:11:05;94756.44;;;12.93;52.13
79612;BME280;69094;48.154;11.536;2023-04-24T10:13:32;94767.06;;;13.18;52.67
79612;BME280;69094;48.154;11.536;2023-04-24T10:16:00;94766.69;;;12.81;53.58
79612;BME280;69094;48.154;11.536;2023-04-24T10:18:26;94764.84;;;12.49;53.89
79612;BME280;69094;48.154;11.536;2023-04-24T10:20:52;94761.94;;;12.23;54.23
79612;BME280;69094;48.154;11.536;2023-04-24T10:23:20;94764.41;;;12.28;54.96
79612;BME280;69094;48.154;11.536;2023-04-24T10:25:45;94759.22;;;12.23;55.03
79612;BME280;69094;48.154;11.536;2023-04-24T10:28:11;94763.25;;;12.29;54.95
79612;BME280;69094;48.154;11.536;2023-04-24T10:30:37;94754.03;;;12.53;54.29
79612;BME280;69094;48.154;11.536;2023-04-24T10:33:07;94752.25;;;12.80;54.13
79612;BME280;69094;48.154;11.536;2023-04-24T10:35:40;94740.09;;;13.17;52.82
79612;BME280;69094;48.154;11.536;2023-04-24T10:38:21;94755.69;;;12.97;54.33
79612;BME280;69094;48.154;11.536;2023-04-24T10:40:49;94748.16;;;12.70;54.75
79612;BME280;69094;48.154;11.536;2023-04-24T10:43:17;94750.47;;;12.33;55.87
79612;BME280;69094;48.154;11.536;2023-04-24T10:46:00;94759.41;;;11.98;57.86
79612;BME280;69094;48.154;11.536;2023-04-24T10:48:26;94767.56;;;11.67;61.11
79612;BME280;69094;48.154;11.536;2023-04-24T10:50:52;94815.19;;;11.41;64.29
79612;BME280;69094;48.154;11.536;2023-04-24T10:53:23;94818.19;;;10.06;67.02
79612;BME280;69094;48.154;11.536;2023-04-24T10:56:03;94821.97;;;9.10;71.15
79612;BME280;69094;48.154;11.536;2023-04-24T10:58:45;94809.53;;;8.88;72.96
79612;BME280;69094;48.154;11.536;2023-04-24T11:01:31;94798.25;;;8.98;72.32
79612;BME280;69094;48.154;11.536;2023-04-24T11:04:01;94792.47;;;9.21;71.58
79612;BME280;69094;48.154;11.536;2023-04-24T11:06:30;94789.13;;;9.48;70.46
79612;BME280;69094;48.154;11.536;2023-04-24T11:09:09;94798.59;;;10.00;68.53
79612;BME280;69094;48.154;11.536;2023-04-24T11:11:38;94785.00;;;10.37;66.05
79612;BME280;69094;48.154;11.536;2023-04-24T11:14:09;94785.47;;;11.08;64.30
79612;BME280;69094;48.154;11.536;2023-04-24T11:16:42;94783.22;;;12.33;61.44
79612;BME280;69094;48.154;11.536;2023-04-24T11:22:16;94768.94;;;14.26;53.90
79612;BME280;69094;48.154;11.536;2023-04-24T11:27:19;94779.59;;;14.57;52.60
79612;BME280;69094;48.154;11.536;2023-04-24T11:35:06;94780.78;;;13.41;55.22
79612;BME280;69094;48.154;11.536;2023-04-24T11:37:38;94797.19;;;13.02;58.31
79612;BME280;69094;48.154;11.536;2023-04-24T11:40:06;94788.41;;;13.12;57.12
79612;BME280;69094;48.154;11.536;2023-04-24T11:42:40;94798.94;;;13.72;54.98
79612;BME280;69094;48.154;11.536;2023-04-24T11:47:41;94788.81;;;14.72;51.05
79612;BME280;69094;48.154;11.536;2023-04-24T11:50:10;94794.31;;;15.36;50.00
79612;BME280;69094;48.154;11.536;2023-04-24T11:52:40;94783.47;;;15.13;50.04
79612;BME280;69094;48.154;11.536;2023-04-24T11:55:23;94789.53;;;14.96;50.01
79612;BME280;69094;48.154;11.536;2023-04-24T11:57:57;94794.47;;;15.50;48.55
79612;BME280;69094;48.154;11.536;2023-04-24T12:00:30;94798.31;;;14.82;47.37
79612;BME280;69094;48.154;11.536;2023-04-24T12:03:11;94784.13;;;14.46;48.48
79612;BME280;69094;48.154;11.536;2023-04-24T12:05:37;94781.25;;;14.65;49.97
79612;BME280;69094;48.154;11.536;2023-04-24T12:08:03;94785.78;;;14.28;51.42
79612;BME280;69094;48.154;11.536;2023-04-24T12:10:31;94787.59;;;13.51;53.11
79612;BME280;69094;48.154;11.536;2023-04-24T12:12:58;94771.66;;;13.33;52.92
79612;BME280;69094;48.154;11.536;2023-04-24T12:15:24;94774.94;;;13.62;51.03
79612;BME280;69094;48.154;11.536;2023-04-24T12:17:51;94768.72;;;14.11;48.41
79612;BME280;69094;48.154;11.536;2023-04-24T12:20:17;94762.59;;;13.95;49.13
79612;BME280;69094;48.154;11.536;2023-04-24T12:22:56;94766.91;;;13.50;49.07
79612;BME280;69094;48.154;11.536;2023-04-24T12:25:23;94767.03;;;13.80;48.20
79612;BME280;69094;48.154;11.536;2023-04-24T12:30:48;94762.13;;;14.16;47.49
79612;BME280;69094;48.154;11.536;2023-04-24T12:33:20;94762.38;;;14.57;47.13
79612;BME280;69094;48.154;11.536;2023-04-24T12:35:48;94762.25;;;15.40;44.58
79612;BME280;69094;48.154;11.536;2023-04-24T12:38:15;94760.72;;;15.84;41.77
79612;BME280;69094;48.154;11.536;2023-04-24T12:40:41;94758.59;;;16.66;40.04
79612;BME280;69094;48.154;11.536;2023-04-24T12:43:14;94751.31;;;16.92;39.48
79612;BME280;69094;48.154;11.536;2023-04-24T12:45:40;94761.28;;;16.55;38.57
79612;BME280;69094;48.154;11.536;2023-04-24T12:48:06;94752.50;;;15.46;39.61
79612;BME280;69094;48.154;11.536;2023-04-24T12:50:31;94757.31;;;15.19;40.30
79612;BME280;69094;48.154;11.536;2023-04-24T12:52:57;94762.09;;;15.26;40.08
79612;BME280;69094;48.154;11.536;2023-04-24T12:55:22;94753.97;;;15.74;39.45
79612;BME280;69094;48.154;11.536;2023-04-24T12:57:47;94754.63;;;15.60;39.72
79612;BME280;69094;48.154;11.536;2023-04-24T13:00:14;94756.97;;;15.24;39.61
79612;BME280;69094;48.154;11.536;2023-04-24T13:02:39;94745.19;;;14.56;38.80
79612;BME280;69094;48.154;11.536;2023-04-24T13:05:05;94760.00;;;14.29;39.49
79612;BME280;69094;48.154;11.536;2023-04-24T13:07:31;94782.13;;;14.20;40.35
79612;BME280;69094;48.154;11.536;2023-04-24T13:09:56;94793.28;;;13.85;43.59